createdAt,value
2022-08-17T00:00:11.033Z,24.55
2022-08-17T00:03:09.525Z,32.85
2022-08-17T00:05:44.674Z,27.30
2022-08-17T00:08:14.704Z,23.10
2022-08-17T00:10:44.468Z,29.65
2022-08-17T00:13:17.249Z,26.98
2022-08-17T00:15:45.370Z,31.70
2022-08-17T00:19:02.079Z,25.90
2022-08-17T00:21:02.841Z,32.58
2022-08-17T00:23:30.811Z,28.63
2022-08-17T00:25:58.174Z,24.05
2022-08-17T00:28:25.525Z,32.30
2022-08-17T00:30:54.295Z,38.85
2022-08-17T00:33:27.291Z,30.15
2022-08-17T00:35:56.169Z,35.83
2022-08-17T00:38:24.830Z,38.72
2022-08-17T00:41:01.246Z,36.58
2022-08-17T00:43:49.719Z,30.97
2022-08-17T00:46:21.490Z,34.55
2022-08-17T00:48:49.626Z,30.23
2022-08-17T00:51:28.885Z,28.80
2022-08-17T00:54:08.345Z,29.20
2022-08-17T00:56:41.290Z,34.08
2022-08-17T00:59:11.514Z,31.98
2022-08-17T01:01:39.758Z,22.88
2022-08-17T01:04:08.673Z,27.00
2022-08-17T01:06:36.135Z,33.88
2022-08-17T01:09:04.736Z,32.35
2022-08-17T01:11:33.099Z,33.08
2022-08-17T01:14:00.600Z,33.80
2022-08-17T01:16:32.260Z,30.77
2022-08-17T01:19:07.811Z,39.95
2022-08-17T01:21:47.581Z,34.25
2022-08-17T01:24:15.727Z,43.83
2022-08-17T01:26:44.190Z,36.67
2022-08-17T01:29:13.211Z,30.10
2022-08-17T01:31:52.262Z,27.73
2022-08-17T01:34:19.850Z,31.25
2022-08-17T01:36:49.696Z,31.67
2022-08-17T01:39:34.379Z,34.95
2022-08-17T01:42:13.292Z,34.85
2022-08-17T01:44:41.440Z,38.75
2022-08-17T01:47:08.778Z,40.30
2022-08-17T01:49:36.064Z,34.35
2022-08-17T01:52:11.186Z,26.95
2022-08-17T01:54:41.053Z,27.90
2022-08-17T01:57:08.860Z,33.78
2022-08-17T01:59:36.591Z,29.60
2022-08-17T02:02:04.831Z,33.15
2022-08-17T02:04:32.506Z,35.70
2022-08-17T02:07:00.815Z,33.38
2022-08-17T02:09:30.364Z,42.20
2022-08-17T02:12:38.897Z,31.17
2022-08-17T02:14:47.703Z,37.17
2022-08-17T02:17:14.965Z,36.55
2022-08-17T02:19:42.303Z,36.13
2022-08-17T02:22:10.083Z,45.75
2022-08-17T02:24:59.329Z,37.90
2022-08-17T02:27:26.158Z,42.67
2022-08-17T02:29:53.497Z,39.80
2022-08-17T02:32:27.502Z,42.13
2022-08-17T02:35:00.948Z,35.47
2022-08-17T02:37:28.934Z,41.28
2022-08-17T02:39:59.619Z,39.72
2022-08-17T02:42:34.040Z,32.38
2022-08-17T02:45:02.375Z,37.22
2022-08-17T02:47:29.817Z,42.42
2022-08-17T02:49:57.347Z,34.42
2022-08-17T02:52:42.705Z,35.20
2022-08-17T02:55:23.685Z,29.42
2022-08-17T02:57:51.638Z,30.98
2022-08-17T03:00:28.782Z,33.22
2022-08-17T03:02:57.826Z,35.45
2022-08-17T03:05:27.859Z,30.77
2022-08-17T03:07:55.748Z,37.63
2022-08-17T03:10:24.712Z,35.33
2022-08-17T03:12:54.420Z,30.65
2022-08-17T03:15:26.102Z,35.35
2022-08-17T03:17:55.504Z,32.17
2022-08-17T03:20:24.747Z,36.92
2022-08-17T03:23:02.941Z,29.90
2022-08-17T03:25:36.850Z,31.63
2022-08-17T03:28:06.194Z,35.50
2022-08-17T03:30:34.114Z,29.65
2022-08-17T03:33:04.562Z,35.00
2022-08-17T03:35:34.319Z,41.30
2022-08-17T03:38:02.066Z,30.55
2022-08-17T03:40:39.894Z,36.47
2022-08-17T03:43:19.251Z,38.63
2022-08-17T03:46:05.850Z,34.55
2022-08-17T03:48:57.208Z,34.58
2022-08-17T03:51:43.679Z,35.10
2022-08-17T03:54:30.199Z,36.33
2022-08-17T03:57:03.464Z,36.30
2022-08-17T03:59:31.962Z,34.85
2022-08-17T04:02:09.495Z,35.15
2022-08-17T04:04:37.390Z,44.08
2022-08-17T04:07:04.992Z,34.90
2022-08-17T04:09:32.583Z,35.08
2022-08-17T04:12:04.609Z,30.88
2022-08-17T04:14:52.054Z,31.35
2022-08-17T04:17:21.201Z,31.38
2022-08-17T04:19:48.462Z,34.55
2022-08-17T04:22:31.882Z,35.35
2022-08-17T04:25:04.797Z,34.40
2022-08-17T04:27:32.395Z,42.97
2022-08-17T04:29:59.752Z,36.42
2022-08-17T04:33:03.552Z,40.38
2022-08-17T04:35:23.108Z,31.38
2022-08-17T04:37:50.898Z,32.85
2022-08-17T04:40:38.748Z,34.20
2022-08-17T04:45:55.148Z,37.70
2022-08-17T04:48:35.359Z,36.25
2022-08-17T04:51:14.991Z,36.80
2022-08-17T04:53:45.523Z,32.97
2022-08-17T04:56:21.476Z,37.95
2022-08-17T04:58:51.291Z,32.53
2022-08-17T05:01:24.098Z,32.80
2022-08-17T05:03:59.032Z,33.63
2022-08-17T05:06:27.926Z,36.35
2022-08-17T05:08:56.885Z,39.22
2022-08-17T05:11:26.090Z,33.78
2022-08-17T05:13:54.954Z,41.63
2022-08-17T05:16:23.717Z,42.08
2022-08-17T05:18:52.056Z,42.38
2022-08-17T05:21:21.377Z,38.83
2022-08-17T05:23:54.934Z,42.47
2022-08-17T05:26:27.373Z,42.00
2022-08-17T05:29:00.643Z,43.72
2022-08-17T05:31:30.853Z,46.25
2022-08-17T05:33:58.374Z,48.30
2022-08-17T05:36:43.483Z,39.53
2022-08-17T05:39:16.695Z,56.95
2022-08-17T05:41:46.781Z,50.35
2022-08-17T05:44:14.253Z,53.60
2022-08-17T05:46:47.652Z,52.78
2022-08-17T05:49:16.945Z,47.47
2022-08-17T05:52:12.100Z,61.63
2022-08-17T05:54:48.644Z,50.58
2022-08-17T05:57:20.901Z,55.60
2022-08-17T06:00:01.268Z,51.83
2022-08-17T06:03:07.436Z,57.67
2022-08-17T06:05:53.769Z,49.22
2022-08-17T06:08:45.989Z,55.08
2022-08-17T06:11:39.208Z,51.17
2022-08-17T06:14:28.562Z,51.33
2022-08-17T06:17:04.375Z,47.38
2022-08-17T06:19:45.760Z,58.67
2022-08-17T06:22:16.495Z,61.85
2022-08-17T06:24:57.582Z,67.57
2022-08-17T06:27:32.039Z,83.30
2022-08-17T06:30:09.085Z,91.05
2022-08-17T06:32:43.952Z,93.35
2022-08-17T06:35:15.488Z,83.90
2022-08-17T06:38:00.827Z,95.82
2022-08-17T06:40:50.644Z,96.10
2022-08-17T06:43:26.900Z,93.80
2022-08-17T06:46:11.454Z,95.18
2022-08-17T06:48:52.291Z,105.65
2022-08-17T06:51:34.719Z,97.82
2022-08-17T06:54:15.284Z,95.28
2022-08-17T06:56:55.337Z,102.28
2022-08-17T06:59:36.379Z,106.88
2022-08-17T07:02:52.906Z,95.35
2022-08-17T07:05:25.602Z,110.20
2022-08-17T07:08:09.274Z,102.90
2022-08-17T07:10:42.924Z,115.00
2022-08-17T07:13:25.641Z,102.95
2022-08-17T07:15:58.641Z,86.20
2022-08-17T07:18:32.999Z,97.13
2022-08-17T07:21:17.547Z,91.30
2022-08-17T07:24:01.079Z,90.72
2022-08-17T07:26:28.697Z,86.35
2022-08-17T07:28:56.257Z,89.68
2022-08-17T07:31:25.941Z,104.35
2022-08-17T07:34:08.365Z,90.30
2022-08-17T07:36:35.779Z,90.40
2022-08-17T07:39:04.269Z,86.90
2022-08-17T07:41:53.057Z,91.43
2022-08-17T07:44:25.148Z,79.43
2022-08-17T07:47:12.468Z,83.88
2022-08-17T07:49:42.666Z,82.60
2022-08-17T07:52:47.683Z,79.50
2022-08-17T07:55:31.055Z,76.78
2022-08-17T07:58:00.059Z,91.03
2022-08-17T08:00:32.258Z,90.50
2022-08-17T08:03:31.899Z,89.75
2022-08-17T08:06:02.234Z,102.18
2022-08-17T08:08:42.340Z,101.68
2022-08-17T08:11:15.138Z,101.93
2022-08-17T08:13:45.545Z,100.10
2022-08-17T08:16:13.378Z,105.10
2022-08-17T08:18:55.755Z,110.80
2022-08-17T08:21:46.411Z,114.50
2022-08-17T08:24:19.994Z,102.78
2022-08-17T08:27:18.121Z,99.70
2022-08-17T08:30:05.016Z,77.63
2022-08-17T08:32:48.658Z,85.87
2022-08-17T08:35:26.810Z,91.45
2022-08-17T08:38:02.715Z,82.03
2022-08-17T08:40:50.754Z,83.72
2022-08-17T08:43:29.415Z,87.20
2022-08-17T08:46:11.546Z,93.72
2022-08-17T08:48:57.948Z,84.70
2022-08-17T08:51:57.401Z,83.63
2022-08-17T08:54:39.071Z,83.25
2022-08-17T08:57:36.152Z,89.03
2022-08-17T09:00:15.935Z,88.13
2022-08-17T09:02:52.140Z,83.53
2022-08-17T09:05:42.722Z,93.30
2022-08-17T09:08:19.125Z,79.03
2022-08-17T09:11:03.346Z,75.60
2022-08-17T09:13:54.686Z,78.75
2022-08-17T09:16:29.799Z,65.85
2022-08-17T09:19:18.850Z,77.57
2022-08-17T09:21:55.498Z,71.40
2022-08-17T09:24:47.381Z,77.32
2022-08-17T09:27:26.663Z,77.85
2022-08-17T09:30:02.532Z,74.35
2022-08-17T09:32:49.907Z,64.05
2022-08-17T09:35:48.179Z,62.53
2022-08-17T09:38:33.069Z,64.32
2022-08-17T09:41:49.187Z,62.15
2022-08-17T09:44:28.286Z,60.63
2022-08-17T09:47:11.882Z,68.30
2022-08-17T09:50:05.444Z,55.42
2022-08-17T09:52:33.087Z,54.25
2022-08-17T09:55:01.780Z,51.58
2022-08-17T09:58:05.162Z,50.25
2022-08-17T10:00:40.079Z,46.83
2022-08-17T10:03:28.456Z,51.78
2022-08-17T10:06:02.891Z,48.88
2022-08-17T10:08:39.346Z,53.17
2022-08-17T10:11:50.251Z,55.22
2022-08-17T10:14:37.627Z,43.95
2022-08-17T10:17:43.742Z,48.45
2022-08-17T10:20:17.254Z,42.25
2022-08-17T10:23:17.960Z,50.75
2022-08-17T10:26:14.624Z,44.33
2022-08-17T10:28:44.874Z,43.28
2022-08-17T10:31:34.597Z,42.75
2022-08-17T10:34:41.715Z,58.45
2022-08-17T10:38:02.754Z,46.38
2022-08-17T10:40:43.350Z,40.17
2022-08-17T10:44:39.756Z,43.55
2022-08-17T10:47:18.774Z,43.70
2022-08-17T10:49:49.579Z,32.88
2022-08-17T10:52:39.777Z,37.35
2022-08-17T10:55:13.930Z,43.03
2022-08-17T10:57:47.443Z,41.42
2022-08-17T11:00:25.528Z,39.78
2022-08-17T11:02:55.901Z,39.63
2022-08-17T11:05:44.143Z,73.80
2022-08-17T11:08:36.306Z,45.60
2022-08-17T11:11:19.817Z,40.20
2022-08-17T11:14:28.573Z,38.53
2022-08-17T11:19:58.227Z,38.88
2022-08-17T11:23:02.309Z,43.42
2022-08-17T11:25:32.526Z,43.95
2022-08-17T11:28:23.899Z,31.75
2022-08-17T11:31:01.631Z,34.65
2022-08-17T11:33:29.165Z,29.23
2022-08-17T11:36:19.567Z,26.98
2022-08-17T11:39:02.908Z,25.17
2022-08-17T11:41:44.137Z,25.65
2022-08-17T11:44:23.534Z,28.77
2022-08-17T11:47:36.187Z,26.83
2022-08-17T11:50:30.142Z,22.98
2022-08-17T11:52:57.542Z,29.80
2022-08-17T11:55:56.992Z,34.30
2022-08-17T11:58:30.367Z,21.83
2022-08-17T12:01:02.681Z,21.38
2022-08-17T12:03:33.361Z,20.88
2022-08-17T12:06:19.435Z,24.20
2022-08-17T12:08:56.463Z,21.73
2022-08-17T12:15:05.635Z,24.35
2022-08-17T12:17:39.705Z,19.75
2022-08-17T12:20:21.798Z,25.88
2022-08-17T12:23:24.224Z,21.35
2022-08-17T12:26:10.350Z,25.35
2022-08-17T12:28:43.880Z,23.95
2022-08-17T12:31:21.931Z,23.20
2022-08-17T12:33:52.504Z,21.33
2022-08-17T12:36:24.755Z,24.38
2022-08-17T12:39:13.682Z,19.17
2022-08-17T12:41:48.089Z,27.50
2022-08-17T12:44:33.415Z,22.20
2022-08-17T12:47:21.848Z,26.75
2022-08-17T12:49:55.059Z,22.95
2022-08-17T12:52:28.081Z,29.10
2022-08-17T12:54:59.684Z,21.67
2022-08-17T12:57:32.733Z,26.52
2022-08-17T13:00:09.499Z,22.73
2022-08-17T13:02:48.107Z,30.83
2022-08-17T13:05:24.610Z,33.28
2022-08-17T13:07:53.371Z,31.10
2022-08-17T13:10:32.419Z,28.80
2022-08-17T13:13:06.024Z,30.35
2022-08-17T13:15:51.546Z,23.42
2022-08-17T13:18:39.827Z,17.50
2022-08-17T13:21:27.483Z,19.90
2022-08-17T13:26:50.836Z,19.42
2022-08-17T13:29:34.938Z,19.77
2022-08-17T13:32:09.631Z,20.83
2022-08-17T13:35:07.752Z,21.90
2022-08-17T13:37:37.261Z,30.88
2022-08-17T13:40:10.446Z,17.90
2022-08-17T13:42:52.593Z,25.77
2022-08-17T13:45:36.140Z,25.75
2022-08-17T13:48:07.407Z,29.90
2022-08-17T13:50:45.113Z,33.80
2022-08-17T13:53:33.773Z,29.08
2022-08-17T13:56:34.926Z,22.65
2022-08-17T13:59:11.719Z,23.20
2022-08-17T14:01:49.693Z,26.23
2022-08-17T14:04:28.675Z,26.13
2022-08-17T14:07:19.627Z,25.13
2022-08-17T14:09:57.961Z,26.77
2022-08-17T14:12:28.082Z,23.02
2022-08-17T14:14:56.425Z,25.20
2022-08-17T14:17:25.202Z,16.77
2022-08-17T14:19:53.598Z,22.10
2022-08-17T14:22:33.951Z,23.33
2022-08-17T14:25:02.643Z,14.57
2022-08-17T14:27:33.491Z,19.15
2022-08-17T14:30:10.355Z,23.02
2022-08-17T14:32:38.296Z,13.93
2022-08-17T14:35:06.363Z,14.50
2022-08-17T14:37:34.496Z,15.82
2022-08-17T14:40:06.748Z,18.38
2022-08-17T14:42:36.534Z,21.23
2022-08-17T14:45:06.327Z,23.45
2022-08-17T14:47:53.561Z,22.13
2022-08-17T14:50:23.078Z,17.25
2022-08-17T14:52:51.273Z,15.25
2022-08-17T14:55:18.833Z,16.08
2022-08-17T14:57:46.209Z,15.82
2022-08-17T15:00:16.467Z,14.15
2022-08-17T15:02:55.622Z,16.48
2022-08-17T15:05:26.606Z,11.23
2022-08-17T15:07:54.017Z,15.05
2022-08-17T15:10:21.855Z,21.92
2022-08-17T15:12:49.293Z,15.55
2022-08-17T15:15:17.742Z,19.15
2022-08-17T15:17:45.972Z,20.10
2022-08-17T15:20:20.647Z,18.50
2022-08-17T15:22:55.212Z,21.35
2022-08-17T15:25:24.680Z,14.45
2022-08-17T15:27:52.455Z,17.73
2022-08-17T15:30:20.326Z,20.90
2022-08-17T15:32:54.328Z,22.80
2022-08-17T15:35:29.408Z,15.98
2022-08-17T15:38:11.106Z,33.92
2022-08-17T15:40:48.721Z,21.00
2022-08-17T15:43:42.481Z,21.02
2022-08-17T15:46:14.418Z,24.52
2022-08-17T15:48:43.852Z,18.10
2022-08-17T15:51:19.893Z,26.63
2022-08-17T15:53:51.942Z,15.73
2022-08-17T15:56:20.313Z,20.10
2022-08-17T15:58:48.917Z,23.65
2022-08-17T16:01:45.434Z,14.73
2022-08-17T16:04:29.955Z,10.55
2022-08-17T16:06:54.110Z,11.25
2022-08-17T16:09:21.375Z,8.10
2022-08-17T16:11:55.112Z,8.30
2022-08-17T16:14:32.521Z,8.57
2022-08-17T16:17:29.635Z,8.02
2022-08-17T16:19:54.103Z,7.60
2022-08-17T16:22:32.366Z,9.48
2022-08-17T16:25:04.576Z,7.82
2022-08-17T16:27:31.892Z,9.43
2022-08-17T16:29:59.250Z,12.82
2022-08-17T16:32:31.922Z,8.40
2022-08-17T16:35:09.813Z,8.98
2022-08-17T16:37:39.459Z,9.85
2022-08-17T16:40:10.140Z,7.47
2022-08-17T16:42:39.580Z,8.73
2022-08-17T16:45:18.714Z,7.28
2022-08-17T16:47:47.040Z,7.20
2022-08-17T16:50:17.901Z,10.18
2022-08-17T16:52:48.403Z,6.35
2022-08-17T16:55:21.266Z,8.57
2022-08-17T16:57:50.257Z,8.77
2022-08-17T17:00:19.302Z,18.75
2022-08-17T17:02:49.498Z,11.90
2022-08-17T17:05:39.904Z,8.10
2022-08-17T17:08:25.764Z,7.80
2022-08-17T17:13:40.830Z,8.48
2022-08-17T17:16:21.845Z,14.85
2022-08-17T17:19:10.467Z,11.15
2022-08-17T17:21:56.861Z,11.75
2022-08-17T17:24:36.854Z,17.65
2022-08-17T17:27:13.825Z,15.70
2022-08-17T17:30:02.585Z,14.35
2022-08-17T17:33:04.795Z,16.17
2022-08-17T17:35:44.266Z,20.50
2022-08-17T17:38:19.895Z,16.45
2022-08-17T17:40:50.994Z,12.35
2022-08-17T17:43:40.641Z,14.50
2022-08-17T17:46:27.537Z,12.50
2022-08-17T17:48:56.765Z,16.40
2022-08-17T17:52:08.729Z,12.80
2022-08-17T17:54:38.006Z,17.90
2022-08-17T17:57:24.531Z,11.90
2022-08-17T18:00:16.693Z,13.43
2022-08-17T18:03:01.972Z,18.38
2022-08-17T18:05:51.838Z,11.75
2022-08-17T18:08:42.247Z,15.65
2022-08-17T18:11:24.141Z,17.50
2022-08-17T18:14:17.237Z,18.85
2022-08-17T18:16:46.333Z,17.60
2022-08-17T18:19:24.927Z,18.90
2022-08-17T18:22:03.271Z,13.98
2022-08-17T18:24:41.037Z,19.20
2022-08-17T18:27:20.137Z,15.63
2022-08-17T18:29:48.942Z,15.13
2022-08-17T18:32:34.160Z,16.15
2022-08-17T18:35:03.562Z,20.23
2022-08-17T18:37:45.759Z,18.05
2022-08-17T18:40:19.514Z,33.80
2022-08-17T18:42:50.094Z,17.60
2022-08-17T18:45:47.073Z,16.13
2022-08-17T18:48:48.681Z,20.13
2022-08-17T18:51:40.451Z,17.60
2022-08-17T18:54:21.315Z,15.77
2022-08-17T18:56:50.309Z,17.27
2022-08-17T18:59:26.942Z,22.27
2022-08-17T19:01:59.999Z,16.67
2022-08-17T19:05:07.969Z,21.00
2022-08-17T19:07:40.275Z,16.45
2022-08-17T19:10:10.954Z,19.23
2022-08-17T19:12:46.139Z,20.88
2022-08-17T19:15:17.147Z,15.05
2022-08-17T19:18:20.235Z,13.23
2022-08-17T19:21:23.833Z,13.82
2022-08-17T19:24:05.494Z,18.42
2022-08-17T19:26:50.701Z,19.42
2022-08-17T19:29:28.966Z,15.95
2022-08-17T19:31:58.479Z,19.52
2022-08-17T19:34:34.483Z,15.88
2022-08-17T19:37:06.818Z,14.57
2022-08-17T19:40:07.786Z,12.20
2022-08-17T19:42:37.104Z,15.55
2022-08-17T19:45:39.698Z,16.13
2022-08-17T19:48:25.143Z,10.23
2022-08-17T19:50:58.081Z,14.23
2022-08-17T19:54:07.242Z,16.15
2022-08-17T19:56:43.820Z,9.90
2022-08-17T19:59:36.030Z,12.27
2022-08-17T20:02:18.904Z,16.02
2022-08-17T20:04:49.475Z,17.02
2022-08-17T20:07:26.158Z,16.42
2022-08-17T20:10:02.534Z,14.02
2022-08-17T20:12:36.547Z,19.90
2022-08-17T20:15:06.425Z,27.27
2022-08-17T20:17:39.432Z,18.75
2022-08-17T20:20:43.547Z,18.60
2022-08-17T20:23:30.064Z,23.95
2022-08-17T20:26:19.477Z,18.75
2022-08-17T20:29:10.228Z,14.27
2022-08-17T20:31:55.603Z,16.52
2022-08-17T20:34:25.633Z,15.65
2022-08-17T20:37:05.951Z,27.38
2022-08-17T20:39:45.353Z,17.52
2022-08-17T20:42:21.551Z,19.15
2022-08-17T20:45:05.499Z,22.65
2022-08-17T20:48:00.754Z,20.13
2022-08-17T20:50:34.728Z,17.98
2022-08-17T20:53:08.957Z,19.52
2022-08-17T20:55:51.697Z,22.48
2022-08-17T20:58:31.155Z,16.85
2022-08-17T21:00:58.899Z,22.20
2022-08-17T21:03:50.541Z,24.42
2022-08-17T21:06:20.470Z,19.88
2022-08-17T21:09:18.769Z,22.25
2022-08-17T21:14:59.894Z,18.25
2022-08-17T21:17:56.509Z,21.60
2022-08-17T21:21:08.300Z,15.55
2022-08-17T21:24:00.266Z,17.95
2022-08-17T21:27:02.299Z,17.73
2022-08-17T21:29:40.277Z,17.77
2022-08-17T21:32:09.001Z,20.90
2022-08-17T21:34:38.167Z,20.05
2022-08-17T21:37:23.672Z,18.80
2022-08-17T21:40:10.968Z,21.77
2022-08-17T21:42:46.643Z,19.38
2022-08-17T21:45:22.800Z,21.73
2022-08-17T21:48:06.862Z,21.75
2022-08-17T21:50:35.581Z,25.88
2022-08-17T21:53:04.400Z,23.02
2022-08-17T21:55:34.205Z,25.33
2022-08-17T21:58:14.812Z,22.52
2022-08-17T22:00:45.994Z,19.88
2022-08-17T22:03:25.925Z,22.15
2022-08-17T22:05:53.232Z,26.08
2022-08-17T22:08:23.878Z,20.50
2022-08-17T22:11:01.152Z,19.30
2022-08-17T22:16:29.033Z,24.15
2022-08-17T22:18:59.100Z,20.60
2022-08-17T22:21:26.710Z,18.10
2022-08-17T22:24:15.332Z,21.42
2022-08-17T22:27:00.467Z,24.10
2022-08-17T22:29:56.912Z,29.75
2022-08-17T22:32:32.314Z,24.60
2022-08-17T22:35:38.377Z,23.35
2022-08-17T22:38:32.506Z,26.00
2022-08-17T22:41:17.185Z,20.33
2022-08-17T22:43:44.943Z,24.48
2022-08-17T22:46:12.965Z,19.20
2022-08-17T22:48:50.757Z,24.67
2022-08-17T22:51:21.736Z,35.25
2022-08-17T22:54:11.452Z,21.20
2022-08-17T22:57:11.462Z,30.10
2022-08-17T22:59:49.449Z,23.85
2022-08-17T23:02:27.845Z,22.30
2022-08-17T23:05:16.654Z,23.08
2022-08-17T23:07:46.588Z,23.63
2022-08-17T23:10:14.747Z,26.98
2022-08-17T23:12:42.446Z,22.13
2022-08-17T23:15:14.344Z,27.98
2022-08-17T23:17:42.093Z,22.33
2022-08-17T23:20:12.990Z,19.48
2022-08-17T23:22:52.163Z,30.02
2022-08-17T23:25:32.209Z,18.80
2022-08-17T23:28:03.382Z,18.63
2022-08-17T23:30:32.411Z,20.75
2022-08-17T23:33:05.933Z,30.20
2022-08-17T23:35:39.159Z,22.60
2022-08-17T23:38:12.924Z,21.17
2022-08-17T23:40:41.033Z,27.27
2022-08-17T23:43:23.356Z,26.33
2022-08-17T23:45:59.662Z,22.15
2022-08-17T23:48:35.754Z,30.70
2022-08-17T23:51:15.024Z,25.30
2022-08-17T23:53:46.361Z,24.73
2022-08-17T23:56:14.519Z,17.60
2022-08-17T23:58:43.274Z,22.65
